ADDS METAR Data INFO
IDs: Format: Raw Decoded Include TAF

Data at: 1612 UTC 14 Aug 2018

KOGS 141555Z AUTO 11003KT 10SM -RA SCT006 SCT015 23/21 A2986 RMK AO2 T02310212
KOGS 141535Z AUTO 09005KT 10SM SCT016 SCT040 SCT049 24/21 A2986 RMK AO2 LTG DSNT SW T02400205
KOGS 141515Z AUTO 07008KT 10SM SCT016 SCT040 SCT049 26/21 A2986 RMK AO2 T02580211
KOGS 141455Z AUTO 06007KT 10SM SCT015 SCT021 26/21 A2986 RMK AO2 T02610212
KOGS 141435Z AUTO 07006KT 10SM BKN015 BKN021 25/22 A2986 RMK AO2 T02500215
KOGS 141415Z AUTO 08006KT 10SM SCT013 24/21 A2986 RMK AO2 T02420211
KOGS 141355Z AUTO 06004KT 10SM CLR 24/21 A2986 RMK AO2 T02410214
KOGS 141335Z AUTO 00000KT 10SM CLR 24/22 A2986 RMK AO2 T02360215
KOGS 141315Z AUTO 04003KT 10SM -DZ CLR 23/21 A2986 RMK AO2 T02290213
KOGS 141255Z AUTO 00000KT 10SM CLR 22/21 A2987 RMK AO2 T02210211
KOGS 141235Z AUTO 00000KT 10SM SCT003 SCT009 22/21 A2987 RMK AO2 T02190210
KOGS 141215Z AUTO 00000KT 10SM BKN009 22/21 A2988 RMK AO2 T02150208
KOGS 141155Z AUTO 00000KT 7SM SCT003 BKN009 21/21 A2988 RMK AO2 LTG DSNT S AND SW T02130207 10217 20197
KOGS 141135Z AUTO 00000KT 10SM -RA SCT003 SCT007 21/21 A2988 RMK AO2 T02110206
KOGS 141115Z AUTO 00000KT 5SM -RA BKN001 BKN007 21/20 A2988 RMK AO2 T02070202
KOGS 141055Z AUTO 00000KT 4SM -RA OVC001 21/20 A2987 RMK AO2 T02050200
KOGS 141035Z AUTO 00000KT 4SM BR SCT003 20/20 A2987 RMK AO2 T02010196
KOGS 141015Z AUTO 00000KT 7SM CLR 20/20 A2987 RMK AO2 T02000195
KOGS 140955Z AUTO 00000KT 7SM CLR 20/20 A2987 RMK AO2 T02000195
KOGS 140935Z AUTO 00000KT 7SM CLR 20/20 A2986 RMK AO2 T02000195
KOGS 140915Z AUTO 00000KT 5SM BR CLR 20/19 A2987 RMK AO2 T01990194
KOGS 140855Z AUTO 00000KT 5SM BR CLR 20/20 A2988 RMK AO2 T02000195
KOGS 140835Z AUTO 00000KT 4SM BR CLR 20/19 A2988 RMK AO2 T02000194
KOGS 140815Z AUTO 00000KT 7SM CLR 20/20 A2989 RMK AO2 T02020196
KOGS 140755Z AUTO 00000KT 7SM CLR 20/20 A2989 RMK AO2 T02030197
KOGS 140735Z AUTO 00000KT 4SM BR CLR 20/20 A2989 RMK AO2 T02020196
KOGS 140715Z AUTO 00000KT 7SM CLR 21/20 A2990 RMK AO2 T02090202
KOGS 140655Z AUTO 00000KT 5SM BR CLR 21/20 A2991 RMK AO2 T02080201
KOGS 140635Z AUTO 00000KT 7SM CLR 21/20 A2991 RMK AO2 T02100202
KOGS 140615Z AUTO 00000KT 10SM CLR 21/21 A2991 RMK AO2 T02130205
KOGS 140535Z AUTO 18003KT 10SM CLR 22/21 A2992 RMK AO2 T02180210
KOGS 140515Z AUTO 15003KT 7SM CLR 21/20 A2992 RMK AO2 T02090202
KOGS 140455Z AUTO 00000KT 7SM CLR 21/20 A2992 RMK AO2 T02110203
KOGS 140435Z AUTO 00000KT 7SM CLR 21/20 A2992 RMK AO2 T02120204
KOGS 140415Z AUTO 00000KT 10SM CLR 22/21 A2993 RMK AO2 T02160207
KOGS 140355Z AUTO 00000KT 10SM CLR 22/21 A2993 RMK AO2 T02190209 402800156
KOGS 140335Z AUTO 00000KT 10SM CLR 22/21 A2993 RMK AO2 T02210211
KOGS 140315Z AUTO 00000KT 10SM SCT080 23/21 A2994 RMK AO2 T02250213
KOGS 140255Z AUTO 00000KT 10SM BKN080 23/21 A2994 RMK AO2 T02250212
KOGS 140235Z AUTO 00000KT 10SM BKN080 23/21 A2994 RMK AO2 T02260214
KOGS 140215Z AUTO 00000KT 10SM BKN080 23/22 A2994 RMK AO2 T02270215
KOGS 140155Z AUTO 00000KT 10SM BKN080 23/22 A2995 RMK AO2 T02290215
KOGS 140135Z AUTO 00000KT 10SM SCT090 23/22 A2995 RMK AO2 T02280215
KOGS 140115Z AUTO 00000KT 10SM SCT090 23/22 A2995 RMK AO2 T02300215
KOGS 140055Z AUTO 00000KT 10SM SCT046 BKN080 BKN095 23/22 A2995 RMK AO2 T02320216
KOGS 140035Z AUTO 00000KT 10SM SCT046 SCT055 BKN070 24/22 A2994 RMK AO2 T02350215
KOGS 140015Z AUTO 00000KT 10SM SCT070 25/22 A2994 RMK AO2 T02450215
KOGS 132355Z AUTO 00000KT 10SM SCT055 OVC070 25/21 A2994 RMK AO2 T02500214 10280 20250
KOGS 132335Z AUTO 34003KT 10SM SCT055 BKN070 25/22 A2995 RMK AO2 T02520215
KOGS 132315Z AUTO 00000KT 10SM SCT070 BKN080 26/22 A2995 RMK AO2 T02550215
KOGS 132255Z AUTO 00000KT 10SM SCT060 BKN070 26/22 A2996 RMK AO2 T02570215
KOGS 132235Z AUTO 00000KT 10SM SCT060 SCT080 26/21 A2996 RMK AO2 T02600212
KOGS 132215Z AUTO 00000KT 10SM BKN080 26/21 A2995 RMK AO2 T02590213
KOGS 132155Z AUTO 36003KT 10SM SCT075 BKN085 26/21 A2996 RMK AO2 T02580211
KOGS 132135Z AUTO 36004KT 10SM SCT085 26/21 A2997 RMK AO2 T02630207
KOGS 132115Z AUTO 36004KT 10SM SCT085 27/21 A2997 RMK AO2 T02700211
KOGS 132055Z AUTO 36006KT 10SM CLR 27/21 A2998 RMK AO2 T02680212
KOGS 132035Z AUTO 36006KT 10SM CLR 27/21 A2998 RMK AO2 T02720209
KOGS 132015Z AUTO 02003KT 10SM CLR 27/21 A2999 RMK AO2 T02700206
KOGS 131955Z AUTO 36006KT 10SM CLR 27/21 A2999 RMK AO2 T02700205
KOGS 131935Z AUTO 36005KT 10SM CLR 27/21 A3000 RMK AO2 T02730205
KOGS 131915Z AUTO 36006KT 10SM CLR 28/21 A3000 RMK AO2 T02770208
KOGS 131855Z AUTO 01006KT 10SM CLR 27/20 A3001 RMK AO2 T02740203
KOGS 131835Z AUTO 35007KT 10SM CLR 28/19 A3002 RMK AO2 T02770194
KOGS 131815Z AUTO 34007KT 10SM CLR 28/20 A3002 RMK AO2 T02770200
KOGS 131755Z AUTO 35005KT 10SM SCT029 28/20 A3003 RMK AO2 T02770200 10277 20183
KOGS 131735Z AUTO 34004KT 10SM SCT029 28/20 A3004 RMK AO2 T02770203
KOGS 131715Z AUTO 34004KT 10SM SCT027 27/20 A3004 RMK AO2 T02740204
KOGS 131655Z AUTO 00000KT 10SM CLR 27/20 A3005 RMK AO2 T02680197
KOGS 131635Z AUTO 00000KT 10SM CLR 26/20 A3005 RMK AO2 T02600201
KOGS 131615Z AUTO 00000KT 10SM CLR 26/20 A3007 RMK AO2 T02630203
KOGS 131555Z AUTO 03003KT 10SM CLR 26/20 A3007 RMK AO2 T02570198
KOGS 131535Z AUTO 36003KT 10SM CLR 25/20 A3008 RMK AO2 T02540198
KOGS 131515Z AUTO 00000KT 10SM CLR 25/19 A3009 RMK AO2 T02460194
KOGS 131455Z AUTO 34003KT 10SM CLR 25/20 A3009 RMK AO2 T02470198
KOGS 131435Z AUTO 00000KT 10SM CLR 24/20 A3009 RMK AO2 T02410197
KOGS 131415Z AUTO 00000KT 10SM CLR 23/20 A3009 RMK AO2 T02300195
KOGS 131355Z AUTO 00000KT 10SM CLR 22/20 A3009 RMK AO2 T02170197
KOGS 131335Z AUTO 00000KT 10SM CLR 21/20 A3009 RMK AO2 T02100195
KOGS 131315Z AUTO 00000KT 10SM CLR 20/19 A3010 RMK AO2 T02020192
KOGS 131255Z AUTO 00000KT 10SM CLR 20/19 A3010 RMK AO2 T01960188
KOGS 131235Z AUTO 00000KT 10SM CLR 19/19 A3009 RMK AO2 T01930187
KOGS 131215Z AUTO 00000KT 10SM CLR 19/18 A3009 RMK AO2 T01850180
KOGS 131155Z AUTO 00000KT 10SM CLR 18/18 A3009 RMK AO2 T01830179 10183 20156
KOGS 131135Z AUTO 00000KT 10SM CLR 18/17 A3009 RMK AO2 T01760172
KOGS 131115Z AUTO 00000KT 7SM CLR 17/17 A3010 RMK AO2 T01710167
KOGS 131055Z AUTO 00000KT 7SM CLR 16/16 A3010 RMK AO2 T01630159
KOGS 131035Z AUTO 00000KT 5SM BR CLR 16/16 A3010 RMK AO2 T01600156
KOGS 131015Z AUTO 00000KT 10SM CLR 16/15 A3009 RMK AO2 T01570152
KOGS 130955Z AUTO 00000KT 5SM BR CLR 16/15 A3009 RMK AO2 T01580154
KOGS 130935Z AUTO 00000KT 7SM CLR 16/16 A3009 RMK AO2 T01610156
KOGS 130915Z AUTO 00000KT 5SM BR CLR 16/16 A3008 RMK AO2 T01600155
KOGS 130855Z AUTO 00000KT 5SM BR CLR 16/15 A3009 RMK AO2 T01590154
KOGS 130835Z AUTO 00000KT 7SM CLR 16/16 A3009 RMK AO2 T01620157
KOGS 130815Z AUTO 00000KT 10SM CLR 17/16 A3009 RMK AO2 T01680163
KOGS 130755Z AUTO 00000KT 7SM CLR 16/16 A3009 RMK AO2 T01630158
KOGS 130735Z AUTO 00000KT 10SM CLR 17/16 A3010 RMK AO2 T01700164
KOGS 130715Z AUTO 00000KT 10SM CLR 17/16 A3010 RMK AO2 T01690164
KOGS 130655Z AUTO 00000KT 7SM CLR 17/17 A3010 RMK AO2 T01710165
KOGS 130635Z AUTO 00000KT 7SM CLR 17/17 A3010 RMK AO2 T01720166
KOGS 130615Z AUTO 00000KT 10SM CLR 17/17 A3010 RMK AO2 T01720165
KOGS 130555Z AUTO 00000KT 10SM CLR 18/17 A3011 RMK AO2 T01800171 10223 20171
KOGS 130535Z AUTO 34003KT 10SM CLR 18/17 A3010 RMK AO2 T01760169
KOGS 130515Z AUTO 00000KT 10SM CLR 18/17 A3010 RMK AO2 T01810172
KOGS 130455Z AUTO 00000KT 10SM CLR 18/17 A3010 RMK AO2 T01760168
KOGS 130435Z AUTO 00000KT 10SM CLR 17/16 A3010 RMK AO2 T01730164
KOGS 130415Z AUTO 07003KT 10SM CLR 17/16 A3010 RMK AO2 T01740163